Harbor Emperor — WCY6430 — position and weather

sailwx.info

Track history (hours):
 
Tides and Currents Weather Stations Pressure Air Temp Water Temp Dewpoint Dewpoint Depression Visibility Wind Speed Wind Dir Waves Ship Positions

Harbor Emperor

Owner: BLUE & GOLD FLEET, SAN FRANCISCO, CA. More information available from US FCC via Universal Licensing System and Coast Guard Vessel Documentation Center.

Last reported at 2014-Nov-28 01:30 UTC. Time now 2014-Nov-28 12:20 UTC.
Position N 37°49' W 122°25'.

Length 31 m.

Type: Passenger vessel. MMSI: 366985270.

Date/timePositionNaut miles runAvg speedWind from/ knotsBaromVisibWave heightAir tempDewpointWater temp
2014-Nov-28 01:30N 37°49' W 122°25'0 0.0
2014-Nov-28 00:33N 37°49' W 122°25'2 2.1
2014-Nov-27 23:33N 37°49' W 122°27'2 2.1
2014-Nov-27 22:33N 37°49' W 122°25'2 2.2
2014-Nov-27 21:33N 37°49' W 122°27'2 2.5
2014-Nov-27 20:33N 37°49' W 122°24'1 0.6
2014-Nov-27 19:33N 37°49' W 122°25'2 1.9
2014-Nov-27 18:33N 37°49' W 122°27'2 1.8
2014-Nov-27 17:33N 37°49' W 122°25'0 0.0
2014-Nov-27 16:30N 37°49' W 122°25'0 0.0
2014-Nov-27 15:27N 37°49' W 122°25'0 0.0
2014-Nov-27 14:33N 37°49' W 122°25'0 0.0
2014-Nov-27 13:33N 37°49' W 122°25'0 0.0
2014-Nov-27 12:33N 37°49' W 122°25'0 0.0
2014-Nov-27 11:33N 37°49' W 122°25'0 0.0
2014-Nov-27 10:30N 37°49' W 122°25'0 0.0
2014-Nov-27 09:33N 37°49' W 122°25'0 0.0
2014-Nov-27 08:33N 37°49' W 122°25'0 0.0
2014-Nov-27 07:33N 37°49' W 122°25'0 0.0
2014-Nov-27 06:24N 37°49' W 122°25'0 0.0
2014-Nov-27 05:33N 37°49' W 122°25'0 0.0
2014-Nov-27 04:33N 37°49' W 122°25'0 0.0
2014-Nov-27 03:33N 37°49' W 122°25'0 0.0
2014-Nov-27 02:33N 37°49' W 122°25'0 0.0
2014-Nov-27 01:33N 37°49' W 122°25'0 0.1
2014-Nov-27 00:34N 37°49' W 122°25'3 3.2
2014-Nov-26 23:34N 37°49' W 122°29'3 3.2
2014-Nov-26 22:33N 37°49' W 122°25'3 2.6
2014-Nov-26 21:33N 37°49' W 122°28'3 3.2
2014-Nov-26 20:33N 37°49' W 122°24'1 0.6
2014-Nov-26 19:33N 37°49' W 122°25'2 2.2
2014-Nov-26 18:33N 37°49' W 122°27'2 2.2
2014-Nov-26 17:33N 37°49' W 122°25'0 0.0
2014-Nov-26 16:33N 37°49' W 122°25'0 0.0
2014-Nov-26 15:34N 37°49' W 122°25'0 0.0
2014-Nov-26 14:33N 37°49' W 122°25'0 0.0
2014-Nov-26 13:33N 37°49' W 122°25'0 0.0
2014-Nov-26 12:33N 37°49' W 122°25'0 0.0
2014-Nov-26 11:34N 37°49' W 122°25'0 0.0
2014-Nov-26 10:34N 37°49' W 122°25'0 0.0
2014-Nov-26 09:33N 37°49' W 122°25'0 0.0
2014-Nov-26 08:34N 37°49' W 122°25'0 0.0
2014-Nov-26 07:33N 37°49' W 122°25'0 0.0
2014-Nov-26 06:34N 37°49' W 122°25'0 0.0
2014-Nov-26 05:33N 37°49' W 122°25'0 0.0
2014-Nov-26 04:33N 37°49' W 122°25'0 0.0
2014-Nov-26 03:33N 37°49' W 122°25'0 0.0
2014-Nov-26 02:34N 37°49' W 122°25'0 0.0
2014-Nov-26 01:34N 37°49' W 122°25'0 0.1
2014-Nov-26 00:34N 37°49' W 122°25'3 2.8
2014-Nov-25 23:34N 37°49' W 122°28'3 2.8
2014-Nov-25 22:33N 37°49' W 122°25'3 2.7
2014-Nov-25 21:34N 37°49' W 122°28'3 2.8
2014-Nov-25 20:34N 37°50' W 122°25'1 0.9
2014-Nov-25 19:34N 37°49' W 122°25'2 2.1
2014-Nov-25 18:33N 37°49' W 122°27'2 2.1
2014-Nov-25 17:30N 37°49' W 122°25'0 0.0
2014-Nov-25 16:28N 37°49' W 122°25'0 0.0
2014-Nov-25 15:31N 37°49' W 122°25'0 0.0
2014-Nov-25 14:31N 37°49' W 122°25'0 0.0
2014-Nov-25 13:25N 37°49' W 122°25'0 0.0
2014-Nov-25 12:28N 37°49' W 122°25'0 0.0
2014-Nov-25 11:31N 37°49' W 122°25'0 0.0
2014-Nov-25 10:31N 37°49' W 122°25'0 0.0
2014-Nov-25 09:31N 37°49' W 122°25'0 0.0
2014-Nov-25 08:31N 37°49' W 122°25'0 0.0
2014-Nov-25 07:31N 37°49' W 122°25'0 0.0
2014-Nov-25 06:25N 37°49' W 122°25'0 0.0
2014-Nov-25 05:31N 37°49' W 122°25'0 0.0
2014-Nov-25 04:31N 37°49' W 122°25'0 0.0
2014-Nov-25 03:31N 37°49' W 122°25'0 0.0
2014-Nov-25 02:31N 37°49' W 122°25'0 0.0
2014-Nov-25 01:31N 37°49' W 122°25'0 0.0
2014-Nov-25 00:31N 37°49' W 122°25'0 0.0
2014-Nov-24 23:31N 37°49' W 122°25'0 0.0
2014-Nov-24 22:31N 37°49' W 122°25'0 0.0
2014-Nov-24 21:31N 37°49' W 122°25'0 0.0
2014-Nov-24 20:31N 37°49' W 122°25'0 0.0
2014-Nov-24 19:31N 37°49' W 122°25'0 0.0
2014-Nov-24 18:25N 37°49' W 122°25'0 0.0
2014-Nov-24 17:31N 37°49' W 122°25'0 0.0
2014-Nov-24 16:31N 37°49' W 122°25'0 0.0
2014-Nov-24 15:31N 37°49' W 122°25'0 0.0
2014-Nov-24 14:31N 37°49' W 122°25'0 0.0
2014-Nov-24 13:31N 37°49' W 122°25'0 0.0
2014-Nov-24 12:31N 37°49' W 122°25'0 0.0
2014-Nov-24 11:31N 37°49' W 122°25'0 0.0
2014-Nov-24 10:31N 37°49' W 122°25'0 0.0
2014-Nov-24 09:31N 37°49' W 122°25'0 0.0
2014-Nov-24 08:31N 37°49' W 122°25'0 0.0
2014-Nov-24 07:31N 37°49' W 122°25'0 0.0
2014-Nov-24 06:31N 37°49' W 122°25'0 0.0
2014-Nov-24 05:25N 37°49' W 122°25'0 0.0
2014-Nov-24 04:31N 37°49' W 122°25'0 0.0
2014-Nov-24 03:31N 37°49' W 122°25'0 0.0
2014-Nov-24 02:31N 37°49' W 122°25'0 0.0
2014-Nov-24 01:31N 37°49' W 122°25'0 0.0
2014-Nov-24 00:31N 37°49' W 122°25'0 0.0
2014-Nov-23 23:31N 37°49' W 122°25'0 0.0
2014-Nov-23 22:31N 37°49' W 122°25'0 0.0
2014-Nov-23 21:31N 37°49' W 122°25'0 0.0
2014-Nov-23 20:31N 37°49' W 122°25'0 0.0
2014-Nov-23 19:31N 37°49' W 122°25'0 0.0
2014-Nov-23 18:31N 37°49' W 122°25'0 0.0
2014-Nov-23 17:31N 37°49' W 122°25'0 0.0
2014-Nov-23 16:31N 37°49' W 122°25'0 0.0
2014-Nov-23 15:31N 37°49' W 122°25'0 0.0
2014-Nov-23 14:31N 37°49' W 122°25'0 0.0
2014-Nov-23 13:31N 37°49' W 122°25'0 0.0
2014-Nov-23 12:31N 37°49' W 122°25'0 0.0
2014-Nov-23 11:34N 37°49' W 122°25'0 0.0
2014-Nov-23 10:25N 37°49' W 122°25'0 0.0
2014-Nov-23 09:33N 37°49' W 122°25'0 0.0
2014-Nov-23 08:31N 37°49' W 122°25'0 0.0
2014-Nov-23 07:33N 37°49' W 122°25'0 0.0
2014-Nov-23 06:30N 37°49' W 122°25'0 0.0
2014-Nov-23 05:31N 37°49' W 122°25'0 0.0
2014-Nov-23 04:31N 37°49' W 122°25'0 0.0
2014-Nov-23 03:31N 37°49' W 122°25'0 0.0
2014-Nov-23 02:33N 37°49' W 122°25'0 0.0
2014-Nov-23 01:34N 37°49' W 122°25'0 0.1
2014-Nov-23 00:33N 37°49' W 122°25'3 3.1
2014-Nov-22 23:34N 37°49' W 122°29'3 3.2
2014-Nov-22 22:33N 37°49' W 122°25'3 2.9
2014-Nov-22 21:34N 37°49' W 122°28'4 3.9
2014-Nov-22 20:33N 37°48' W 122°23'1 1.1
2014-Nov-22 19:33N 37°49' W 122°25'2 2.2
2014-Nov-22 18:33N 37°49' W 122°27'2 2.1
2014-Nov-22 17:29N 37°49' W 122°25'0 0.0
2014-Nov-22 16:32N 37°49' W 122°25'0 0.0
2014-Nov-22 15:32N 37°49' W 122°25'0 0.0
2014-Nov-22 14:32N 37°49' W 122°25'0 0.0
2014-Nov-22 13:32N 37°49' W 122°25'0 0.0
2014-Nov-22 12:32N 37°49' W 122°25'0 0.0
2014-Nov-22 11:32N 37°49' W 122°25'0 0.0
2014-Nov-22 10:32N 37°49' W 122°25'0 0.0
2014-Nov-22 09:32N 37°49' W 122°25'0 0.0
2014-Nov-22 08:32N 37°49' W 122°25'0 0.0
2014-Nov-22 07:32N 37°49' W 122°25'0 0.0
2014-Nov-22 06:32N 37°49' W 122°25'0 0.0
2014-Nov-22 05:26N 37°49' W 122°25'0 0.0
2014-Nov-22 04:32N 37°49' W 122°25'0 0.0
2014-Nov-22 03:32N 37°49' W 122°25'0 0.0
2014-Nov-22 02:29N 37°49' W 122°25'0 0.0
2014-Nov-22 01:32N 37°49' W 122°25'0 0.3
2014-Nov-22 00:33N 37°49' W 122°25'3 3.0
2014-Nov-21 23:34N 37°49' W 122°29'3 3.2
2014-Nov-21 22:33N 37°49' W 122°25'3 3.3
2014-Nov-21 21:33N 37°49' W 122°29'4 4.0
2014-Nov-21 20:34N 37°49' W 122°24'1 0.7
2014-Nov-21 19:34N 37°49' W 122°25'3 2.6
2014-Nov-21 18:34N 37°49' W 122°28'3 0.2
2014-Nov-21 01:31N 37°49' W 122°25'0 0.1
2014-Nov-21 00:34N 37°49' W 122°25'2 1.9
2014-Nov-20 23:33N 37°49' W 122°27'2 1.9
2014-Nov-20 22:34N 37°49' W 122°25'2 2.0
2014-Nov-20 21:34N 37°49' W 122°27'2 1.7
2014-Nov-20 20:33N 37°49' W 122°25'1 1.0
2014-Nov-20 19:34N 37°49' W 122°25'2 1.6
2014-Nov-20 18:33N 37°49' W 122°27'2 1.6
2014-Nov-20 17:33N 37°49' W 122°25'0 0.0
2014-Nov-20 16:24N 37°49' W 122°25'0 0.0
2014-Nov-20 15:33N 37°49' W 122°25'0 0.0
2014-Nov-20 14:33N 37°49' W 122°25'0 0.0
2014-Nov-20 13:33N 37°49' W 122°25'0 0.0
2014-Nov-20 12:30N 37°49' W 122°25'0 0.0
2014-Nov-20 11:33N 37°49' W 122°25'0 0.0
2014-Nov-20 10:33N 37°49' W 122°25'0 0.0
2014-Nov-20 09:33N 37°49' W 122°25'0 0.0
2014-Nov-20 08:33N 37°49' W 122°25'0 0.0
2014-Nov-20 07:30N 37°49' W 122°25'0 0.0
2014-Nov-20 06:30N 37°49' W 122°25'0 0.0
2014-Nov-20 05:24N 37°49' W 122°25'0 0.0
2014-Nov-20 04:30N 37°49' W 122°25'0 0.0
2014-Nov-20 03:30N 37°49' W 122°25'0 0.0
2014-Nov-20 02:30N 37°49' W 122°25'0 0.0
2014-Nov-20 01:33N 37°49' W 122°25'0 0.1
2014-Nov-20 00:34N 37°49' W 122°25'3 2.8
2014-Nov-19 23:34N 37°49' W 122°28'3 2.8
2014-Nov-19 22:33N 37°49' W 122°25'3 3.0
2014-Nov-19 21:34N 37°49' W 122°28'3 3.2
2014-Nov-19 20:34N 37°49' W 122°24'0 0.5
2014-Nov-19 19:34N 37°49' W 122°25'2 2.2
2014-Nov-19 18:33N 37°49' W 122°27'3 0.1
2014-Nov-18 18:32N 37°48' W 122°24'0 0.0
2014-Nov-18 17:32N 37°48' W 122°24'0 0.0
2014-Nov-18 16:32N 37°48' W 122°24'0 0.0
2014-Nov-18 15:32N 37°48' W 122°24'0 0.0
2014-Nov-18 14:32N 37°48' W 122°24'0 0.0
2014-Nov-18 13:32N 37°48' W 122°24'0 0.0
2014-Nov-18 12:32N 37°48' W 122°24'0 0.0
2014-Nov-18 11:32N 37°48' W 122°24'0 0.0
2014-Nov-18 10:32N 37°48' W 122°24'0 0.0
2014-Nov-18 09:32N 37°48' W 122°24'0 0.0
2014-Nov-18 08:32N 37°48' W 122°24'0 0.0
2014-Nov-18 07:32N 37°48' W 122°24'0 0.0
2014-Nov-18 06:32N 37°48' W 122°24'0 0.0
2014-Nov-18 05:32N 37°48' W 122°24'0 0.0
2014-Nov-18 04:32N 37°48' W 122°24'0 0.0
2014-Nov-18 03:32N 37°48' W 122°24'0 0.0
2014-Nov-18 02:29N 37°48' W 122°24'0 0.0
2014-Nov-18 01:32N 37°48' W 122°24'  
Track history (hours):
 
Tides and Currents Weather Stations Pressure Air Temp Water Temp Dewpoint Dewpoint Depression Visibility Wind Speed Wind Dir Waves Ship Positions

Harbor Emperor

Owner: BLUE & GOLD FLEET, SAN FRANCISCO, CA. More information available from US FCC via Universal Licensing System and Coast Guard Vessel Documentation Center.

Last reported at 2014-Nov-28 01:30 UTC. Time now 2014-Nov-28 12:20 UTC.
Position N 37°49' W 122°25'.

Length 31 m.

Type: Passenger vessel. MMSI: 366985270.

Date/timePositionNaut miles runAvg speedWind from/ knotsBaromVisibWave heightAir tempDewpointWater temp
2014-Nov-28 01:30N 37°49' W 122°25'0 0.0
2014-Nov-28 00:33N 37°49' W 122°25'2 2.1
2014-Nov-27 23:33N 37°49' W 122°27'2 2.1
2014-Nov-27 22:33N 37°49' W 122°25'2 2.2
2014-Nov-27 21:33N 37°49' W 122°27'2 2.5
2014-Nov-27 20:33N 37°49' W 122°24'1 0.6
2014-Nov-27 19:33N 37°49' W 122°25'2 1.9
2014-Nov-27 18:33N 37°49' W 122°27'2 1.8
2014-Nov-27 17:33N 37°49' W 122°25'0 0.0
2014-Nov-27 16:30N 37°49' W 122°25'0 0.0
2014-Nov-27 15:27N 37°49' W 122°25'0 0.0
2014-Nov-27 14:33N 37°49' W 122°25'0 0.0
2014-Nov-27 13:33N 37°49' W 122°25'0 0.0
2014-Nov-27 12:33N 37°49' W 122°25'0 0.0
2014-Nov-27 11:33N 37°49' W 122°25'0 0.0
2014-Nov-27 10:30N 37°49' W 122°25'0 0.0
2014-Nov-27 09:33N 37°49' W 122°25'0 0.0
2014-Nov-27 08:33N 37°49' W 122°25'0 0.0
2014-Nov-27 07:33N 37°49' W 122°25'0 0.0
2014-Nov-27 06:24N 37°49' W 122°25'0 0.0
2014-Nov-27 05:33N 37°49' W 122°25'0 0.0
2014-Nov-27 04:33N 37°49' W 122°25'0 0.0
2014-Nov-27 03:33N 37°49' W 122°25'0 0.0
2014-Nov-27 02:33N 37°49' W 122°25'0 0.0
2014-Nov-27 01:33N 37°49' W 122°25'0 0.1
2014-Nov-27 00:34N 37°49' W 122°25'3 3.2
2014-Nov-26 23:34N 37°49' W 122°29'3 3.2
2014-Nov-26 22:33N 37°49' W 122°25'3 2.6
2014-Nov-26 21:33N 37°49' W 122°28'3 3.2
2014-Nov-26 20:33N 37°49' W 122°24'1 0.6
2014-Nov-26 19:33N 37°49' W 122°25'2 2.2
2014-Nov-26 18:33N 37°49' W 122°27'2 2.2
2014-Nov-26 17:33N 37°49' W 122°25'0 0.0
2014-Nov-26 16:33N 37°49' W 122°25'0 0.0
2014-Nov-26 15:34N 37°49' W 122°25'0 0.0
2014-Nov-26 14:33N 37°49' W 122°25'0 0.0
2014-Nov-26 13:33N 37°49' W 122°25'0 0.0
2014-Nov-26 12:33N 37°49' W 122°25'0 0.0
2014-Nov-26 11:34N 37°49' W 122°25'0 0.0
2014-Nov-26 10:34N 37°49' W 122°25'0 0.0
2014-Nov-26 09:33N 37°49' W 122°25'0 0.0
2014-Nov-26 08:34N 37°49' W 122°25'0 0.0
2014-Nov-26 07:33N 37°49' W 122°25'0 0.0
2014-Nov-26 06:34N 37°49' W 122°25'0 0.0
2014-Nov-26 05:33N 37°49' W 122°25'0 0.0
2014-Nov-26 04:33N 37°49' W 122°25'0 0.0
2014-Nov-26 03:33N 37°49' W 122°25'0 0.0
2014-Nov-26 02:34N 37°49' W 122°25'0 0.0
2014-Nov-26 01:34N 37°49' W 122°25'0 0.1
2014-Nov-26 00:34N 37°49' W 122°25'3 2.8
2014-Nov-25 23:34N 37°49' W 122°28'3 2.8
2014-Nov-25 22:33N 37°49' W 122°25'3 2.7
2014-Nov-25 21:34N 37°49' W 122°28'3 2.8
2014-Nov-25 20:34N 37°50' W 122°25'1 0.9
2014-Nov-25 19:34N 37°49' W 122°25'2 2.1
2014-Nov-25 18:33N 37°49' W 122°27'2 2.1
2014-Nov-25 17:30N 37°49' W 122°25'0 0.0
2014-Nov-25 16:28N 37°49' W 122°25'0 0.0
2014-Nov-25 15:31N 37°49' W 122°25'0 0.0
2014-Nov-25 14:31N 37°49' W 122°25'0 0.0
2014-Nov-25 13:25N 37°49' W 122°25'0 0.0
2014-Nov-25 12:28N 37°49' W 122°25'0 0.0
2014-Nov-25 11:31N 37°49' W 122°25'0 0.0
2014-Nov-25 10:31N 37°49' W 122°25'0 0.0
2014-Nov-25 09:31N 37°49' W 122°25'0 0.0
2014-Nov-25 08:31N 37°49' W 122°25'0 0.0
2014-Nov-25 07:31N 37°49' W 122°25'0 0.0
2014-Nov-25 06:25N 37°49' W 122°25'0 0.0
2014-Nov-25 05:31N 37°49' W 122°25'0 0.0
2014-Nov-25 04:31N 37°49' W 122°25'0 0.0
2014-Nov-25 03:31N 37°49' W 122°25'0 0.0
2014-Nov-25 02:31N 37°49' W 122°25'0 0.0
2014-Nov-25 01:31N 37°49' W 122°25'0 0.0
2014-Nov-25 00:31N 37°49' W 122°25'0 0.0
2014-Nov-24 23:31N 37°49' W 122°25'0 0.0
2014-Nov-24 22:31N 37°49' W 122°25'0 0.0
2014-Nov-24 21:31N 37°49' W 122°25'0 0.0
2014-Nov-24 20:31N 37°49' W 122°25'0 0.0
2014-Nov-24 19:31N 37°49' W 122°25'0 0.0
2014-Nov-24 18:25N 37°49' W 122°25'0 0.0
2014-Nov-24 17:31N 37°49' W 122°25'0 0.0
2014-Nov-24 16:31N 37°49' W 122°25'0 0.0
2014-Nov-24 15:31N 37°49' W 122°25'0 0.0
2014-Nov-24 14:31N 37°49' W 122°25'0 0.0
2014-Nov-24 13:31N 37°49' W 122°25'0 0.0
2014-Nov-24 12:31N 37°49' W 122°25'0 0.0
2014-Nov-24 11:31N 37°49' W 122°25'0 0.0
2014-Nov-24 10:31N 37°49' W 122°25'0 0.0
2014-Nov-24 09:31N 37°49' W 122°25'0 0.0
2014-Nov-24 08:31N 37°49' W 122°25'0 0.0
2014-Nov-24 07:31N 37°49' W 122°25'0 0.0
2014-Nov-24 06:31N 37°49' W 122°25'0 0.0
2014-Nov-24 05:25N 37°49' W 122°25'0 0.0
2014-Nov-24 04:31N 37°49' W 122°25'0 0.0
2014-Nov-24 03:31N 37°49' W 122°25'0 0.0
2014-Nov-24 02:31N 37°49' W 122°25'0 0.0
2014-Nov-24 01:31N 37°49' W 122°25'0 0.0
2014-Nov-24 00:31N 37°49' W 122°25'0 0.0
2014-Nov-23 23:31N 37°49' W 122°25'0 0.0
2014-Nov-23 22:31N 37°49' W 122°25'0 0.0
2014-Nov-23 21:31N 37°49' W 122°25'0 0.0
2014-Nov-23 20:31N 37°49' W 122°25'0 0.0
2014-Nov-23 19:31N 37°49' W 122°25'0 0.0
2014-Nov-23 18:31N 37°49' W 122°25'0 0.0
2014-Nov-23 17:31N 37°49' W 122°25'0 0.0
2014-Nov-23 16:31N 37°49' W 122°25'0 0.0
2014-Nov-23 15:31N 37°49' W 122°25'0 0.0
2014-Nov-23 14:31N 37°49' W 122°25'0 0.0
2014-Nov-23 13:31N 37°49' W 122°25'0 0.0
2014-Nov-23 12:31N 37°49' W 122°25'0 0.0
2014-Nov-23 11:34N 37°49' W 122°25'0 0.0
2014-Nov-23 10:25N 37°49' W 122°25'0 0.0
2014-Nov-23 09:33N 37°49' W 122°25'0 0.0
2014-Nov-23 08:31N 37°49' W 122°25'0 0.0
2014-Nov-23 07:33N 37°49' W 122°25'0 0.0
2014-Nov-23 06:30N 37°49' W 122°25'0 0.0
2014-Nov-23 05:31N 37°49' W 122°25'0 0.0
2014-Nov-23 04:31N 37°49' W 122°25'0 0.0
2014-Nov-23 03:31N 37°49' W 122°25'0 0.0
2014-Nov-23 02:33N 37°49' W 122°25'0 0.0
2014-Nov-23 01:34N 37°49' W 122°25'0 0.1
2014-Nov-23 00:33N 37°49' W 122°25'3 3.1
2014-Nov-22 23:34N 37°49' W 122°29'3 3.2
2014-Nov-22 22:33N 37°49' W 122°25'3 2.9
2014-Nov-22 21:34N 37°49' W 122°28'4 3.9
2014-Nov-22 20:33N 37°48' W 122°23'1 1.1
2014-Nov-22 19:33N 37°49' W 122°25'2 2.2
2014-Nov-22 18:33N 37°49' W 122°27'2 2.1
2014-Nov-22 17:29N 37°49' W 122°25'0 0.0
2014-Nov-22 16:32N 37°49' W 122°25'0 0.0
2014-Nov-22 15:32N 37°49' W 122°25'0 0.0
2014-Nov-22 14:32N 37°49' W 122°25'0 0.0
2014-Nov-22 13:32N 37°49' W 122°25'0 0.0
2014-Nov-22 12:32N 37°49' W 122°25'0 0.0
2014-Nov-22 11:32N 37°49' W 122°25'0 0.0
2014-Nov-22 10:32N 37°49' W 122°25'0 0.0
2014-Nov-22 09:32N 37°49' W 122°25'0 0.0
2014-Nov-22 08:32N 37°49' W 122°25'0 0.0
2014-Nov-22 07:32N 37°49' W 122°25'0 0.0
2014-Nov-22 06:32N 37°49' W 122°25'0 0.0
2014-Nov-22 05:26N 37°49' W 122°25'0 0.0
2014-Nov-22 04:32N 37°49' W 122°25'0 0.0
2014-Nov-22 03:32N 37°49' W 122°25'0 0.0
2014-Nov-22 02:29N 37°49' W 122°25'0 0.0
2014-Nov-22 01:32N 37°49' W 122°25'0 0.3
2014-Nov-22 00:33N 37°49' W 122°25'3 3.0
2014-Nov-21 23:34N 37°49' W 122°29'3 3.2
2014-Nov-21 22:33N 37°49' W 122°25'3 3.3
2014-Nov-21 21:33N 37°49' W 122°29'4 4.0
2014-Nov-21 20:34N 37°49' W 122°24'1 0.7
2014-Nov-21 19:34N 37°49' W 122°25'3 2.6
2014-Nov-21 18:34N 37°49' W 122°28'3 0.2
2014-Nov-21 01:31N 37°49' W 122°25'0 0.1
2014-Nov-21 00:34N 37°49' W 122°25'2 1.9
2014-Nov-20 23:33N 37°49' W 122°27'2 1.9
2014-Nov-20 22:34N 37°49' W 122°25'2 2.0
2014-Nov-20 21:34N 37°49' W 122°27'2 1.7
2014-Nov-20 20:33N 37°49' W 122°25'1 1.0
2014-Nov-20 19:34N 37°49' W 122°25'2 1.6
2014-Nov-20 18:33N 37°49' W 122°27'2 1.6
2014-Nov-20 17:33N 37°49' W 122°25'0 0.0
2014-Nov-20 16:24N 37°49' W 122°25'0 0.0
2014-Nov-20 15:33N 37°49' W 122°25'0 0.0
2014-Nov-20 14:33N 37°49' W 122°25'0 0.0
2014-Nov-20 13:33N 37°49' W 122°25'0 0.0
2014-Nov-20 12:30N 37°49' W 122°25'0 0.0
2014-Nov-20 11:33N 37°49' W 122°25'0 0.0
2014-Nov-20 10:33N 37°49' W 122°25'0 0.0
2014-Nov-20 09:33N 37°49' W 122°25'0 0.0
2014-Nov-20 08:33N 37°49' W 122°25'0 0.0
2014-Nov-20 07:30N 37°49' W 122°25'0 0.0
2014-Nov-20 06:30N 37°49' W 122°25'0 0.0
2014-Nov-20 05:24N 37°49' W 122°25'0 0.0
2014-Nov-20 04:30N 37°49' W 122°25'0 0.0
2014-Nov-20 03:30N 37°49' W 122°25'0 0.0
2014-Nov-20 02:30N 37°49' W 122°25'0 0.0
2014-Nov-20 01:33N 37°49' W 122°25'0 0.1
2014-Nov-20 00:34N 37°49' W 122°25'3 2.8
2014-Nov-19 23:34N 37°49' W 122°28'3 2.8
2014-Nov-19 22:33N 37°49' W 122°25'3 3.0
2014-Nov-19 21:34N 37°49' W 122°28'3 3.2
2014-Nov-19 20:34N 37°49' W 122°24'0 0.5
2014-Nov-19 19:34N 37°49' W 122°25'2 2.2
2014-Nov-19 18:33N 37°49' W 122°27'3 0.1
2014-Nov-18 18:32N 37°48' W 122°24'0 0.0
2014-Nov-18 17:32N 37°48' W 122°24'0 0.0
2014-Nov-18 16:32N 37°48' W 122°24'0 0.0
2014-Nov-18 15:32N 37°48' W 122°24'0 0.0
2014-Nov-18 14:32N 37°48' W 122°24'0 0.0
2014-Nov-18 13:32N 37°48' W 122°24'0 0.0
2014-Nov-18 12:32N 37°48' W 122°24'0 0.0
2014-Nov-18 11:32N 37°48' W 122°24'0 0.0
2014-Nov-18 10:32N 37°48' W 122°24'0 0.0
2014-Nov-18 09:32N 37°48' W 122°24'0 0.0
2014-Nov-18 08:32N 37°48' W 122°24'0 0.0
2014-Nov-18 07:32N 37°48' W 122°24'0 0.0
2014-Nov-18 06:32N 37°48' W 122°24'0 0.0
2014-Nov-18 05:32N 37°48' W 122°24'0 0.0
2014-Nov-18 04:32N 37°48' W 122°24'0 0.0
2014-Nov-18 03:32N 37°48' W 122°24'0 0.0
2014-Nov-18 02:29N 37°48' W 122°24'0 0.0
2014-Nov-18 01:32N 37°48' W 122°24'  

Dump ship's entire track history